Time,TemperatureF,DewpointF,PressureIn,WindDirection,WindDirectionDegrees,WindSpeedMPH,WindSpeedGustMPH,Humidity,HourlyPrecipIn,Conditions,Clouds,dailyrainin,SoftwareType,DateUTC
2013-03-09 00:02:00,42.0,30.0,-100.00,East,80,8.0,10.0,62,-99.99,,,-99.99,,2013-03-09 06:02:00,
2013-03-09 00:11:00,42.0,30.0,-100.00,East,80,9.0,11.0,62,-99.99,,,-99.99,,2013-03-09 06:11:00,
2013-03-09 00:22:00,42.0,30.0,-100.00,East,80,9.0,11.0,62,-99.99,,,-99.99,,2013-03-09 06:22:00,
2013-03-09 00:42:00,42.0,30.0,-100.00,East,100,6.0,8.0,63,-99.99,,,-99.99,,2013-03-09 06:42:00,
2013-03-09 00:52:00,42.0,30.0,-100.00,East,90,4.0,6.0,63,-99.99,,,-99.99,,2013-03-09 06:52:00,
2013-03-09 01:01:00,42.0,30.0,-100.00,East,90,4.0,6.0,63,-99.99,,,-99.99,,2013-03-09 07:01:00,
2013-03-09 01:11:00,42.0,30.0,-100.00,East,90,8.0,9.0,64,-99.99,,,-99.99,,2013-03-09 07:11:00,
2013-03-09 01:21:00,42.0,30.0,-100.00,ESE,105,4.0,4.0,63,-99.99,,,-99.99,,2013-03-09 07:21:00,
2013-03-09 01:32:00,42.0,30.0,-100.00,East,85,6.0,6.0,62,-99.99,,,-99.99,,2013-03-09 07:32:00,
2013-03-09 01:42:00,42.0,30.0,-100.00,East,85,6.0,6.0,62,-99.99,,,-99.99,,2013-03-09 07:42:00,
2013-03-09 01:52:00,42.0,30.0,-100.00,East,100,8.0,10.0,63,-99.99,,,-99.99,,2013-03-09 07:52:00,
2013-03-09 02:01:00,42.0,30.0,-100.00,East,100,8.0,10.0,63,-99.99,,,-99.99,,2013-03-09 08:01:00,
2013-03-09 02:11:00,42.0,29.0,-100.00,East,90,9.0,10.0,61,-99.99,,,-99.99,,2013-03-09 08:11:00,
2013-03-09 02:22:00,42.0,29.0,-100.00,ESE,115,9.0,14.0,58,-99.99,,,-99.99,,2013-03-09 08:22:00,
2013-03-09 02:32:00,42.0,29.0,-100.00,ESE,115,9.0,14.0,58,-99.99,,,-99.99,,2013-03-09 08:32:00,
2013-03-09 02:41:00,43.0,28.0,-100.00,ESE,120,9.0,11.0,57,-99.99,,,-99.99,,2013-03-09 08:41:00,
2013-03-09 02:52:00,43.0,28.0,-100.00,ESE,120,4.0,6.0,57,-99.99,,,-99.99,,2013-03-09 08:52:00,
2013-03-09 03:01:00,43.0,28.0,-100.00,ESE,120,4.0,6.0,57,-99.99,,,-99.99,,2013-03-09 09:01:00,
2013-03-09 03:12:00,43.0,28.0,-100.00,SE,125,9.0,12.0,56,-99.99,,,-99.99,,2013-03-09 09:12:00,
2013-03-09 03:21:00,42.0,28.0,-100.00,ESE,110,6.0,9.0,57,-99.99,,,-99.99,,2013-03-09 09:21:00,
2013-03-09 03:32:00,42.0,28.0,-100.00,ESE,110,6.0,9.0,57,-99.99,,,-99.99,,2013-03-09 09:32:00,
2013-03-09 03:42:00,42.0,28.0,-100.00,ESE,110,6.0,8.0,57,-99.99,,,-99.99,,2013-03-09 09:42:00,
2013-03-09 03:52:00,42.0,28.0,-100.00,ESE,105,9.0,11.0,57,-99.99,,,-99.99,,2013-03-09 09:52:00,
2013-03-09 04:01:00,42.0,28.0,-100.00,ESE,105,9.0,11.0,57,-99.99,,,-99.99,,2013-03-09 10:01:00,
2013-03-09 04:11:00,42.0,28.0,-100.00,ESE,120,6.0,9.0,56,-99.99,,,-99.99,,2013-03-09 10:11:00,
2013-03-09 04:21:00,42.0,28.0,-100.00,SE,125,9.0,10.0,57,-99.99,,,-99.99,,2013-03-09 10:21:00,
2013-03-09 04:31:00,42.0,28.0,-100.00,SE,125,9.0,10.0,57,-99.99,,,-99.99,,2013-03-09 10:31:00,
2013-03-09 04:42:00,42.0,28.0,-100.00,East,100,9.0,10.0,57,-99.99,,,-99.99,,2013-03-09 10:42:00,
2013-03-09 04:52:00,41.0,28.0,-100.00,ESE,110,10.0,12.0,59,-99.99,,,-99.99,,2013-03-09 10:52:00,
2013-03-09 05:01:00,41.0,28.0,-100.00,ESE,110,10.0,12.0,59,-99.99,,,-99.99,,2013-03-09 11:01:00,
2013-03-09 05:11:00,41.0,28.0,-100.00,ESE,110,9.0,10.0,59,-99.99,,,-99.99,,2013-03-09 11:11:00,
2013-03-09 05:21:00,41.0,28.0,-100.00,East,95,6.0,8.0,59,-99.99,,,-99.99,,2013-03-09 11:21:00,
2013-03-09 05:32:00,41.0,28.0,-100.00,East,95,6.0,8.0,59,-99.99,,,-99.99,,2013-03-09 11:32:00,
2013-03-09 05:42:00,41.0,28.0,-100.00,East,100,10.0,11.0,60,-99.99,,,-99.99,,2013-03-09 11:42:00,
2013-03-09 05:52:00,41.0,28.0,-100.00,SE,125,9.0,9.0,61,-99.99,,,-99.99,,2013-03-09 11:52:00,
2013-03-09 06:01:00,41.0,28.0,-100.00,SE,125,9.0,9.0,61,-99.99,,,-99.99,,2013-03-09 12:01:00,
2013-03-09 06:11:00,41.0,28.0,-100.00,SE,145,9.0,11.0,60,-99.99,,,-99.99,,2013-03-09 12:11:00,
2013-03-09 06:21:00,41.0,28.0,-100.00,East,85,10.0,12.0,61,-99.99,,,-99.99,,2013-03-09 12:21:00,
2013-03-09 06:32:00,41.0,28.0,-100.00,East,85,10.0,12.0,61,-99.99,,,-99.99,,2013-03-09 12:32:00,
2013-03-09 06:42:00,41.0,28.0,-100.00,ESE,120,6.0,9.0,61,-99.99,,,-99.99,,2013-03-09 12:42:00,
2013-03-09 06:52:00,41.0,28.0,-100.00,ESE,115,9.0,12.0,61,-99.99,,,-99.99,,2013-03-09 12:52:00,
2013-03-09 07:02:00,41.0,28.0,-100.00,ESE,115,9.0,12.0,61,-99.99,,,-99.99,,2013-03-09 13:02:00,
2013-03-09 07:11:00,41.0,28.0,-100.00,ESE,115,6.0,9.0,61,-99.99,,,-99.99,,2013-03-09 13:11:00,
2013-03-09 07:21:00,40.0,28.0,-100.00,ESE,110,10.0,14.0,62,-99.99,,,-99.99,,2013-03-09 13:21:00,
2013-03-09 07:32:00,40.0,28.0,-100.00,ESE,110,10.0,14.0,62,-99.99,,,-99.99,,2013-03-09 13:32:00,
2013-03-09 07:42:00,41.0,29.0,-100.00,ESE,105,8.0,10.0,62,-99.99,,,-99.99,,2013-03-09 13:42:00,
2013-03-09 07:52:00,41.0,28.0,-100.00,ESE,105,10.0,10.0,61,-99.99,,,-99.99,,2013-03-09 13:52:00,
2013-03-09 08:01:00,41.0,28.0,-100.00,ESE,105,10.0,10.0,61,-99.99,,,-99.99,,2013-03-09 14:01:00,
2013-03-09 08:11:00,41.0,29.0,-100.00,ESE,110,8.0,11.0,61,-99.99,,,-99.99,,2013-03-09 14:11:00,
2013-03-09 08:21:00,42.0,29.0,-100.00,East,100,9.0,10.0,61,-99.99,,,-99.99,,2013-03-09 14:21:00,
2013-03-09 08:32:00,42.0,29.0,-100.00,East,100,9.0,10.0,61,-99.99,,,-99.99,,2013-03-09 14:32:00,
2013-03-09 08:42:00,42.0,29.0,-100.00,ESE,120,12.0,16.0,61,-99.99,,,-99.99,,2013-03-09 14:42:00,
2013-03-09 08:52:00,42.0,29.0,-100.00,East,100,10.0,12.0,61,-99.99,,,-99.99,,2013-03-09 14:52:00,
2013-03-09 09:02:00,42.0,29.0,-100.00,East,100,10.0,12.0,61,-99.99,,,-99.99,,2013-03-09 15:02:00,
2013-03-09 09:11:00,42.0,29.0,-100.00,ESE,105,9.0,10.0,61,-99.99,,,-99.99,,2013-03-09 15:11:00,
2013-03-09 09:22:00,42.0,30.0,-100.00,ESE,105,8.0,9.0,62,-99.99,,,-99.99,,2013-03-09 15:22:00,
2013-03-09 09:32:00,42.0,30.0,-100.00,ESE,105,8.0,9.0,62,-99.99,,,-99.99,,2013-03-09 15:32:00,
2013-03-09 09:42:00,42.0,30.0,-100.00,East,100,4.0,6.0,63,-99.99,,,-99.99,,2013-03-09 15:42:00,
2013-03-09 09:52:00,42.0,30.0,-100.00,ESE,105,6.0,9.0,63,-99.99,,,-99.99,,2013-03-09 15:52:00,
2013-03-09 10:01:00,42.0,30.0,-100.00,ESE,105,6.0,9.0,63,-99.99,,,-99.99,,2013-03-09 16:01:00,
2013-03-09 10:11:00,43.0,31.0,-100.00,ESE,110,6.0,9.0,62,-99.99,,,-99.99,,2013-03-09 16:11:00,
2013-03-09 10:21:00,43.0,31.0,-100.00,ESE,115,6.0,6.0,61,-99.99,,,-99.99,,2013-03-09 16:21:00,
2013-03-09 10:32:00,43.0,31.0,-100.00,ESE,115,6.0,6.0,61,-99.99,,,-99.99,,2013-03-09 16:32:00,
2013-03-09 10:42:00,44.0,31.0,-100.00,ESE,115,6.0,9.0,60,-99.99,,,-99.99,,2013-03-09 16:42:00,
2013-03-09 10:52:00,44.0,31.0,-100.00,ESE,120,4.0,6.0,59,-99.99,,,-99.99,,2013-03-09 16:52:00,
2013-03-09 11:01:00,44.0,31.0,-100.00,ESE,120,4.0,6.0,59,-99.99,,,-99.99,,2013-03-09 17:01:00,
2013-03-09 11:11:00,45.0,31.0,-100.00,ESE,110,9.0,10.0,59,-99.99,,,-99.99,,2013-03-09 17:11:00,
2013-03-09 11:22:00,45.0,32.0,-100.00,ESE,110,8.0,10.0,59,-99.99,,,-99.99,,2013-03-09 17:22:00,
2013-03-09 11:32:00,45.0,32.0,-100.00,ESE,110,8.0,10.0,59,-99.99,,,-99.99,,2013-03-09 17:32:00,
2013-03-09 11:42:00,46.0,32.0,-100.00,ESE,115,11.0,14.0,58,-99.99,,,-99.99,,2013-03-09 17:42:00,
2013-03-09 11:52:00,44.0,33.0,-100.00,SE,125,9.0,14.0,63,-99.99,,,-99.99,,2013-03-09 17:52:00,
2013-03-09 12:02:00,44.0,33.0,-100.00,SE,125,9.0,14.0,63,-99.99,,,-99.99,,2013-03-09 18:02:00,
2013-03-09 12:11:00,44.0,33.0,-100.00,SSE,160,6.0,8.0,66,-99.99,,,-99.99,,2013-03-09 18:11:00,
2013-03-09 12:21:00,43.0,35.0,-100.00,SE,140,4.0,6.0,71,-99.99,,,-99.99,,2013-03-09 18:21:00,
2013-03-09 12:32:00,43.0,35.0,-100.00,SE,140,4.0,6.0,71,-99.99,,,-99.99,,2013-03-09 18:32:00,
2013-03-09 12:42:00,44.0,36.0,-100.00,SE,125,9.0,10.0,73,-99.99,,,-99.99,,2013-03-09 18:42:00,
2013-03-09 12:52:00,45.0,37.0,-100.00,ESE,115,12.0,14.0,73,-99.99,,,-99.99,,2013-03-09 18:52:00,
2013-03-09 13:01:00,45.0,37.0,-100.00,ESE,115,12.0,14.0,73,-99.99,,,-99.99,,2013-03-09 19:01:00,
2013-03-09 13:11:00,45.0,37.0,-100.00,SE,125,11.0,14.0,73,-99.99,,,-99.99,,2013-03-09 19:11:00,
2013-03-09 13:22:00,47.0,38.0,-100.00,SE,125,10.0,12.0,69,-99.99,,,-99.99,,2013-03-09 19:22:00,
2013-03-09 13:32:00,47.0,38.0,-100.00,SE,125,10.0,12.0,69,-99.99,,,-99.99,,2013-03-09 19:32:00,
2013-03-09 13:42:00,50.0,39.0,-100.00,ESE,115,12.0,14.0,65,-99.99,,,-99.99,,2013-03-09 19:42:00,
2013-03-09 13:52:00,52.0,38.0,-100.00,SE,130,11.0,14.0,57,-99.99,,,-99.99,,2013-03-09 19:52:00,
2013-03-09 14:01:00,52.0,38.0,-100.00,SE,130,11.0,14.0,57,-99.99,,,-99.99,,2013-03-09 20:01:00,
2013-03-09 14:11:00,55.0,38.0,-100.00,ESE,120,10.0,12.0,52,-99.99,,,-99.99,,2013-03-09 20:11:00,
2013-03-09 14:21:00,56.0,35.0,-100.00,ESE,120,18.0,21.0,45,-99.99,,,-99.99,,2013-03-09 20:21:00,
2013-03-09 14:32:00,56.0,35.0,-100.00,ESE,120,18.0,21.0,45,-99.99,,,-99.99,,2013-03-09 20:32:00,
2013-03-09 14:42:00,57.0,35.0,-100.00,ESE,120,14.0,21.0,43,-99.99,,,-99.99,,2013-03-09 20:42:00,
2013-03-09 14:52:00,57.0,34.0,-100.00,SE,125,11.0,16.0,42,-99.99,,,-99.99,,2013-03-09 20:52:00,
2013-03-09 15:02:00,57.0,34.0,-100.00,SE,125,11.0,16.0,42,-99.99,,,-99.99,,2013-03-09 21:02:00,
2013-03-09 15:12:00,56.0,34.0,-100.00,SE,135,16.0,19.0,43,-99.99,,,-99.99,,2013-03-09 21:12:00,
2013-03-09 15:22:00,57.0,35.0,-100.00,SE,135,17.0,21.0,43,-99.99,,,-99.99,,2013-03-09 21:22:00,
2013-03-09 15:32:00,57.0,35.0,-100.00,SE,135,17.0,21.0,43,-99.99,,,-99.99,,2013-03-09 21:32:00,
2013-03-09 15:42:00,58.0,35.0,-100.00,SE,125,16.0,19.0,42,-99.99,,,-99.99,,2013-03-09 21:42:00,
2013-03-09 15:52:00,60.0,35.0,-100.00,SE,125,11.0,17.0,40,-99.99,,,-99.99,,2013-03-09 21:52:00,
2013-03-09 16:01:00,60.0,35.0,-100.00,SE,125,11.0,17.0,40,-99.99,,,-99.99,,2013-03-09 22:01:00,
2013-03-09 16:11:00,60.0,34.0,-100.00,SE,135,18.0,21.0,38,-99.99,,,-99.99,,2013-03-09 22:11:00,
2013-03-09 16:21:00,59.0,34.0,-100.00,SE,125,18.0,21.0,39,-99.99,,,-99.99,,2013-03-09 22:21:00,
2013-03-09 16:32:00,59.0,34.0,-100.00,SE,125,18.0,21.0,39,-99.99,,,-99.99,,2013-03-09 22:32:00,
2013-03-09 16:42:00,59.0,34.0,-100.00,SE,130,21.0,24.0,39,-99.99,,,-99.99,,2013-03-09 22:42:00,
2013-03-09 16:52:00,59.0,34.0,-100.00,SE,125,12.0,16.0,39,-99.99,,,-99.99,,2013-03-09 22:52:00,
2013-03-09 17:01:00,59.0,34.0,-100.00,SE,125,12.0,16.0,39,-99.99,,,-99.99,,2013-03-09 23:01:00,
2013-03-09 17:11:00,59.0,35.0,-100.00,SE,130,14.0,18.0,39,-99.99,,,-99.99,,2013-03-09 23:11:00,
2013-03-09 17:21:00,59.0,34.0,-100.00,ESE,120,16.0,18.0,38,-99.99,,,-99.99,,2013-03-09 23:21:00,
2013-03-09 17:32:00,59.0,34.0,-100.00,ESE,120,16.0,18.0,38,-99.99,,,-99.99,,2013-03-09 23:32:00,
2013-03-09 17:42:00,58.0,34.0,-100.00,East,100,14.0,16.0,40,-99.99,,,-99.99,,2013-03-09 23:42:00,
2013-03-09 17:52:00,57.0,34.0,-100.00,ESE,110,14.0,18.0,41,-99.99,,,-99.99,,2013-03-09 23:52:00,
2013-03-09 18:01:00,57.0,34.0,-100.00,ESE,110,14.0,18.0,41,-99.99,,,-99.99,,2013-03-10 00:01:00,
2013-03-09 18:11:00,57.0,34.0,-100.00,ESE,120,10.0,14.0,42,-99.99,,,-99.99,,2013-03-10 00:11:00,
2013-03-09 18:22:00,57.0,34.0,-100.00,ESE,115,12.0,16.0,42,-99.99,,,-99.99,,2013-03-10 00:22:00,
2013-03-09 18:32:00,57.0,34.0,-100.00,ESE,115,12.0,16.0,42,-99.99,,,-99.99,,2013-03-10 00:32:00,
2013-03-09 18:42:00,56.0,33.0,-100.00,SE,130,14.0,14.0,42,-99.99,,,-99.99,,2013-03-10 00:42:00,
2013-03-09 18:52:00,56.0,34.0,-100.00,ESE,115,12.0,14.0,43,-99.99,,,-99.99,,2013-03-10 00:52:00,
2013-03-09 19:01:00,56.0,34.0,-100.00,ESE,115,12.0,14.0,43,-99.99,,,-99.99,,2013-03-10 01:01:00,
2013-03-09 19:11:00,55.0,33.0,-100.00,SE,125,10.0,12.0,43,-99.99,,,-99.99,,2013-03-10 01:11:00,
2013-03-09 19:21:00,55.0,33.0,-100.00,ESE,110,10.0,12.0,43,-99.99,,,-99.99,,2013-03-10 01:21:00,
2013-03-09 19:32:00,55.0,33.0,-100.00,ESE,110,10.0,12.0,43,-99.99,,,-99.99,,2013-03-10 01:32:00,
2013-03-09 19:41:00,55.0,33.0,-100.00,ESE,115,10.0,14.0,44,-99.99,,,-99.99,,2013-03-10 01:41:00,
2013-03-09 19:52:00,54.0,33.0,-100.00,ESE,110,10.0,12.0,45,-99.99,,,-99.99,,2013-03-10 01:52:00,
2013-03-09 20:01:00,54.0,33.0,-100.00,ESE,110,10.0,12.0,45,-99.99,,,-99.99,,2013-03-10 02:01:00,
2013-03-09 20:11:00,54.0,34.0,-100.00,ESE,105,9.0,11.0,46,-99.99,,,-99.99,,2013-03-10 02:11:00,
2013-03-09 20:22:00,53.0,34.0,-100.00,ESE,115,9.0,12.0,47,-99.99,,,-99.99,,2013-03-10 02:22:00,
2013-03-09 20:32:00,53.0,34.0,-100.00,ESE,115,9.0,12.0,47,-99.99,,,-99.99,,2013-03-10 02:32:00,
2013-03-09 20:42:00,53.0,34.0,-100.00,ESE,115,9.0,12.0,47,-99.99,,,-99.99,,2013-03-10 02:42:00,